Time;durP1;ratioP1;P1;durP2;ratioP2;P2;SDS_P1;SDS_P2;PMS_P1;PMS_P2;Temp;Humidity;BMP_temperature;BMP_pressure;BME280_temperature;BME280_humidity;BME280_pressure;Samples;Min_cycle;Max_cycle;Signal;HPM_P1;HPM_P2
2021/06/28 00:00:33;;;;;;;5.90;5.47;;;20.60;99.90;;;21.63;77.86;97848.22;5225307;28;20231;-62
2021/06/28 00:03:06;;;;;;;5.63;5.28;;;20.60;99.90;;;21.61;77.68;97860.38;5219183;28;20650;-61
2021/06/28 00:05:41;;;;;;;5.60;5.18;;;20.60;99.90;;;21.56;78.05;97860.28;5226039;28;20313;-60
2021/06/28 00:08:14;;;;;;;6.22;5.72;;;20.60;99.90;;;21.55;78.46;97854.22;5226433;28;20212;-60
2021/06/28 00:10:47;;;;;;;6.10;5.75;;;20.60;99.90;;;21.51;78.29;97852.41;5225138;28;20201;-62
2021/06/28 00:13:20;;;;;;;6.18;5.70;;;20.50;99.90;;;21.51;78.56;97851.53;5226342;28;20235;-59
2021/06/28 00:15:54;;;;;;;6.40;5.88;;;20.50;99.90;;;21.53;78.79;97844.66;5226022;28;20686;-62
2021/06/28 00:18:27;;;;;;;6.75;5.93;;;20.60;99.90;;;21.56;79.00;97848.16;5226357;28;20284;-61
2021/06/28 00:21:02;;;;;;;8.32;5.80;;;20.70;99.90;;;21.61;79.62;97843.03;5226210;28;20202;-59
2021/06/28 00:23:35;;;;;;;5.85;5.45;;;20.80;99.90;;;21.68;79.70;97838.75;5226564;28;20560;-59
2021/06/28 00:26:08;;;;;;;5.85;5.38;;;20.80;99.90;;;21.73;79.33;97842.31;5225896;28;20217;-61
2021/06/28 00:28:41;;;;;;;5.95;5.55;;;20.90;99.90;;;21.78;78.75;97840.66;5226044;28;20200;-60
2021/06/28 00:31:14;;;;;;;5.68;5.25;;;20.90;99.90;;;21.74;78.19;97831.03;5225787;28;20203;-62
2021/06/28 00:33:47;;;;;;;5.43;5.00;;;20.90;99.90;;;21.73;78.05;97830.16;5224545;28;20695;-61
2021/06/28 00:36:22;;;;;;;5.43;4.93;;;20.90;99.90;;;21.79;77.90;97821.56;5224227;28;20723;-61
2021/06/28 00:38:55;;;;;;;5.25;4.85;;;20.90;99.90;;;21.85;78.01;97829.44;5226017;28;20196;-61
2021/06/28 00:41:28;;;;;;;4.95;4.65;;;20.90;99.90;;;21.83;77.88;97831.13;5225717;28;20204;-60
2021/06/28 00:44:01;;;;;;;5.28;4.80;;;20.90;99.90;;;21.90;77.84;97827.78;5224499;28;20197;-60
2021/06/28 00:46:34;;;;;;;4.72;4.43;;;21.00;99.90;;;21.89;78.10;97832.94;5225558;28;20249;-62
2021/06/28 00:49:07;;;;;;;5.60;5.18;;;21.00;99.90;;;21.89;79.10;97833.84;5225595;28;20223;-61
2021/06/28 00:51:41;;;;;;;5.47;4.97;;;21.00;99.90;;;21.84;79.55;97825.09;5222246;28;20197;-58
2021/06/28 00:54:15;;;;;;;5.40;5.10;;;21.00;99.90;;;21.89;77.54;97822.53;5225330;28;20207;-59
2021/06/28 00:56:48;;;;;;;4.43;4.07;;;20.90;99.90;;;21.86;76.43;97814.69;5225822;28;20213;-61
2021/06/28 00:59:22;;;;;;;4.47;4.18;;;20.90;99.90;;;21.81;76.04;97815.53;5225525;28;20203;-61
2021/06/28 01:01:55;;;;;;;5.03;4.53;;;20.90;99.90;;;21.86;75.66;97812.97;5225511;28;20201;-61
2021/06/28 01:04:29;;;;;;;4.32;4.03;;;20.90;99.90;;;21.86;76.19;97809.47;5225312;28;20203;-59
2021/06/28 01:07:04;;;;;;;4.07;3.85;;;20.90;99.90;;;21.80;76.67;97798.19;5225599;28;20221;-59
2021/06/28 01:09:37;;;;;;;4.75;4.35;;;20.90;99.90;;;21.84;75.96;97806.88;5219282;28;20200;-61
2021/06/28 01:12:11;;;;;;;5.15;4.68;;;20.90;99.90;;;21.82;76.44;97806.84;5221308;28;20687;-60
2021/06/28 01:14:45;;;;;;;4.80;4.40;;;20.90;99.90;;;21.71;76.02;97813.66;5224117;28;20198;-59
2021/06/28 01:17:18;;;;;;;4.35;4.05;;;20.80;99.90;;;21.66;76.10;97804.94;5225472;28;20213;-60
2021/06/28 01:19:58;;;;;;;4.45;4.05;;;20.80;99.90;;;21.69;75.30;97809.28;5224496;28;20189;-61
2021/06/28 01:22:36;;;;;;;4.75;4.30;;;20.80;99.90;;;21.67;75.47;97805.81;5225448;28;20577;-58
2021/06/28 01:25:14;;;;;;;3.70;3.50;;;20.80;99.90;;;21.66;75.80;97804.03;5221470;28;20189;-60
2021/06/28 01:27:48;;;;;;;4.53;4.22;;;20.70;99.90;;;21.66;75.52;97804.03;5209408;28;20220;-61
2021/06/28 01:30:26;;;;;;;4.40;4.10;;;20.70;99.90;;;21.67;75.78;97798.00;5225199;28;20203;-59
2021/06/28 01:32:59;;;;;;;4.05;3.65;;;20.80;99.90;;;21.68;75.94;97776.31;5224840;28;20196;-61
2021/06/28 01:35:32;;;;;;;4.65;4.28;;;20.80;99.90;;;21.67;76.47;97764.19;5224717;28;20610;-59
2021/06/28 01:38:06;;;;;;;3.92;3.72;;;20.80;99.90;;;21.66;75.79;97749.41;5223914;28;20556;-60
2021/06/28 01:40:42;;;;;;;4.50;4.18;;;20.80;99.90;;;21.67;75.33;97756.38;5226111;28;20197;-60
2021/06/28 01:43:15;;;;;;;4.57;4.28;;;20.70;99.90;;;21.67;75.04;97765.06;5229653;28;20570;-60
2021/06/28 01:45:48;;;;;;;5.07;4.57;;;20.70;99.90;;;21.55;76.88;97764.91;5228534;28;20194;-60
2021/06/28 01:48:21;;;;;;;5.50;5.10;;;20.60;99.90;;;21.53;77.13;97764.88;5229337;28;20189;-59
2021/06/28 01:50:54;;;;;;;5.35;4.90;;;20.50;99.90;;;21.42;78.59;97768.22;5229052;28;20196;-62
2021/06/28 01:53:27;;;;;;;5.10;4.63;;;20.50;99.90;;;21.36;78.66;97761.16;5229233;28;20203;-60
2021/06/28 01:56:05;;;;;;;5.32;4.85;;;20.40;99.90;;;21.22;78.86;97765.31;5228844;28;20646;-62
2021/06/28 01:58:38;;;;;;;5.28;4.75;;;20.30;99.90;;;21.14;80.97;97747.88;5227282;28;20200;-59
2021/06/28 02:01:11;;;;;;;5.40;4.90;;;20.30;99.90;;;21.11;81.43;97750.44;5228683;28;20207;-60
2021/06/28 02:03:44;;;;;;;5.40;5.05;;;20.30;99.90;;;21.09;82.79;97744.34;5228683;28;20203;-57
2021/06/28 02:06:17;;;;;;;5.50;5.03;;;20.30;99.90;;;21.07;82.60;97732.19;5229025;28;20225;-60
2021/06/28 02:08:50;;;;;;;5.13;4.82;;;20.30;99.90;;;21.04;82.00;97739.94;5228073;28;20546;-60
2021/06/28 02:11:25;;;;;;;5.07;4.65;;;20.20;99.90;;;21.01;82.11;97743.38;5227291;28;20550;-61
2021/06/28 02:13:58;;;;;;;5.97;5.15;;;20.20;99.90;;;20.95;81.32;97737.22;5228335;28;20587;-62
2021/06/28 02:16:31;;;;;;;5.13;4.82;;;20.20;99.90;;;20.93;82.25;97742.38;5228442;28;20689;-61
2021/06/28 02:19:04;;;;;;;5.75;5.25;;;20.10;99.90;;;20.92;81.65;97756.25;5228881;28;20634;-60
2021/06/28 02:21:37;;;;;;;5.47;5.07;;;20.10;99.90;;;20.89;81.48;97756.19;5228556;28;20204;-61
2021/06/28 02:24:11;;;;;;;5.25;4.85;;;20.10;99.90;;;20.92;82.09;97741.53;5228457;28;20194;-58
2021/06/28 02:26:46;;;;;;;5.50;5.00;;;20.10;99.90;;;21.04;81.36;97730.41;5228324;28;20596;-62
2021/06/28 02:29:19;;;;;;;4.63;4.32;;;20.10;99.90;;;20.95;80.47;97729.44;5228393;28;20189;-59
2021/06/28 02:31:52;;;;;;;4.57;4.28;;;20.10;99.90;;;20.79;80.88;97730.94;5228531;28;20193;-61
2021/06/28 02:34:25;;;;;;;4.68;4.28;;;19.80;99.90;;;20.75;81.72;97726.56;5228527;28;20409;-62
2021/06/28 02:36:58;;;;;;;5.13;4.72;;;19.90;99.90;;;20.75;82.01;97710.97;5228123;28;20216;-61
2021/06/28 02:39:31;;;;;;;5.22;4.82;;;19.80;99.90;;;20.69;82.18;97707.41;5226247;28;20193;-61
2021/06/28 02:42:07;;;;;;;4.57;4.28;;;19.80;99.90;;;20.67;81.87;97710.84;5224393;28;20661;-61
2021/06/28 02:44:40;;;;;;;5.22;4.90;;;19.80;99.90;;;20.63;81.54;97709.03;5227832;28;20196;-61
2021/06/28 02:47:13;;;;;;;5.20;4.70;;;19.70;99.90;;;20.62;81.48;97715.09;5228330;28;20703;-60
2021/06/28 02:49:46;;;;;;;5.30;4.90;;;19.70;99.90;;;20.53;82.61;97713.22;5227843;28;20205;-62
2021/06/28 02:52:19;;;;;;;5.80;5.30;;;19.60;99.90;;;20.42;83.74;97715.63;5227056;28;20270;-57
2021/06/28 02:54:53;;;;;;;5.72;5.25;;;19.60;99.90;;;20.48;83.71;97718.31;5227566;28;20207;-62
2021/06/28 02:57:27;;;;;;;6.07;5.13;;;19.60;99.90;;;20.49;84.35;97716.59;5228116;28;20605;-57
2021/06/28 03:00:01;;;;;;;5.63;5.13;;;19.60;99.90;;;20.50;85.41;97714.88;5227909;28;20195;-62
2021/06/28 03:02:34;;;;;;;5.75;5.05;;;19.70;99.90;;;20.51;85.82;97711.41;5227641;28;20201;-59
2021/06/28 03:05:09;;;;;;;5.32;5.03;;;19.70;99.90;;;20.47;85.29;97710.50;5227833;28;20208;-61
2021/06/28 03:07:42;;;;;;;5.70;5.30;;;19.70;99.90;;;20.43;85.82;97713.88;5227610;28;20561;-61
2021/06/28 03:10:15;;;;;;;5.78;5.30;;;19.70;99.90;;;20.33;85.10;97730.19;5227949;28;20760;-61
2021/06/28 03:12:50;;;;;;;4.97;4.68;;;19.60;99.90;;;20.37;85.43;97740.63;5227186;28;20209;-59
2021/06/28 03:15:23;;;;;;;5.07;4.70;;;19.60;99.90;;;20.44;85.43;97739.03;5227522;28;20189;-60
2021/06/28 03:17:56;;;;;;;5.72;5.32;;;19.70;99.90;;;20.47;85.15;97734.75;5222785;28;20709;-61
2021/06/28 03:20:29;;;;;;;5.43;4.85;;;19.70;99.90;;;20.46;85.32;97730.41;5227819;28;20198;-60
2021/06/28 03:23:02;;;;;;;5.20;4.80;;;19.70;99.90;;;20.48;84.66;97738.22;5227587;28;20197;-61
2021/06/28 03:25:35;;;;;;;4.97;4.60;;;19.70;99.90;;;20.50;84.96;97756.44;5227421;28;20585;-61
2021/06/28 03:28:10;;;;;;;5.32;4.93;;;19.70;99.90;;;20.50;85.59;97782.38;5227039;28;20661;-61
2021/06/28 03:30:44;;;;;;;5.60;5.15;;;19.70;99.90;;;20.54;85.76;97800.66;5227145;28;20193;-58
2021/06/28 03:33:17;;;;;;;5.47;5.07;;;19.80;99.90;;;20.60;86.09;97800.78;5226796;28;20657;-61
2021/06/28 03:35:50;;;;;;;5.72;5.32;;;19.80;99.90;;;20.61;86.61;97802.53;5227207;28;20201;-61
2021/06/28 03:38:24;;;;;;;6.32;5.70;;;19.80;99.90;;;20.64;86.73;97797.38;5227205;28;20204;-61
2021/06/28 03:40:57;;;;;;;5.18;4.75;;;19.80;99.90;;;20.58;86.62;97797.28;5221014;28;20197;-59
2021/06/28 03:43:31;;;;;;;5.25;4.85;;;19.80;99.90;;;20.59;87.53;97792.97;5227031;28;20635;-61
2021/06/28 03:46:06;;;;;;;5.13;4.82;;;19.80;99.90;;;20.58;87.84;97799.88;5227437;28;20204;-60
2021/06/28 03:48:40;;;;;;;6.25;4.97;;;19.90;99.90;;;20.66;88.20;97795.69;5226921;28;20221;-60
2021/06/28 03:51:13;;;;;;;5.43;4.93;;;19.80;99.90;;;20.57;87.71;97790.31;5227019;28;20584;-61
2021/06/28 03:53:47;;;;;;;5.68;5.28;;;19.80;99.90;;;20.56;87.43;97790.31;5226625;28;20661;-58
2021/06/28 03:56:24;;;;;;;5.47;5.07;;;19.80;99.90;;;20.59;87.98;97816.34;5226804;28;20208;-61
2021/06/28 03:58:58;;;;;;;5.85;5.35;;;19.80;99.90;;;20.55;88.26;97797.25;5226703;28;20193;-59
2021/06/28 04:01:31;;;;;;;6.07;5.60;;;19.80;99.90;;;20.53;88.21;97805.84;5218414;28;20645;-61
2021/06/28 04:04:05;;;;;;;5.85;5.35;;;19.70;99.90;;;20.48;89.03;97808.31;5225347;28;20251;-60
2021/06/28 04:06:38;;;;;;;6.07;5.57;;;19.70;99.90;;;20.37;89.08;97812.44;5222936;28;20223;-59
2021/06/28 04:09:11;;;;;;;5.90;5.50;;;19.60;99.90;;;20.29;89.31;97808.84;5227016;28;20824;-58
2021/06/28 04:11:44;;;;;;;6.60;5.60;;;19.60;99.90;;;20.28;90.71;97801.91;5220812;28;20208;-59
2021/06/28 04:14:18;;;;;;;6.10;5.60;;;19.50;99.90;;;20.24;91.94;97795.78;5225248;28;20568;-59
2021/06/28 04:16:53;;;;;;;5.80;5.30;;;19.60;99.90;;;20.06;90.12;97785.97;5220173;28;20222;-59
2021/06/28 04:19:26;;;;;;;5.63;5.20;;;19.40;99.90;;;19.90;89.85;97768.34;5224389;28;20665;-62
2021/06/28 04:21:59;;;;;;;5.47;5.07;;;19.20;99.90;;;19.75;90.05;97764.63;5225669;28;20204;-59
2021/06/28 04:24:32;;;;;;;5.25;4.90;;;19.10;99.90;;;19.74;90.87;97752.50;5217268;28;20296;-58
2021/06/28 04:27:06;;;;;;;5.97;5.57;;;19.20;99.90;;;19.79;91.99;97747.41;5218349;28;20236;-59
2021/06/28 04:29:40;;;;;;;6.03;5.47;;;19.20;99.90;;;19.75;90.88;97738.69;5224569;28;20221;-61
2021/06/28 04:32:13;;;;;;;6.50;6.10;;;19.10;99.90;;;19.61;91.30;97745.28;5224165;28;20200;-59
2021/06/28 04:34:47;;;;;;;6.57;6.10;;;19.00;99.90;;;19.59;91.41;97749.56;5223233;28;20212;-60
2021/06/28 04:37:20;;;;;;;6.43;5.93;;;18.90;99.90;;;19.53;92.61;97741.66;5221340;28;20224;-56
2021/06/28 04:39:53;;;;;;;6.80;6.30;;;18.90;99.90;;;19.62;91.67;97730.59;5225344;28;20201;-60
2021/06/28 04:42:26;;;;;;;6.22;5.72;;;18.90;99.90;;;19.49;92.62;97721.72;5224133;28;20209;-61
2021/06/28 04:45:05;;;;;;;7.03;6.53;;;18.80;99.90;;;19.45;92.89;97735.47;5221728;28;20208;-59
2021/06/28 04:47:39;;;;;;;6.03;5.63;;;18.80;99.90;;;19.45;93.00;97743.22;5212938;28;20222;-61
2021/06/28 04:50:14;;;;;;;5.95;5.47;;;18.80;99.90;;;19.51;93.35;97743.34;5225291;28;20288;-58
2021/06/28 04:52:47;;;;;;;6.22;5.63;;;18.80;99.90;;;19.57;92.48;97741.78;5225750;28;20203;-59
2021/06/28 04:55:22;;;;;;;6.13;5.68;;;18.90;99.90;;;19.66;91.98;97743.72;5222304;28;20683;-61
2021/06/28 04:57:56;;;;;;;6.45;5.95;;;18.90;99.90;;;19.72;91.89;97741.22;5224421;28;20205;-59
2021/06/28 05:00:30;;;;;;;6.43;5.95;;;19.00;99.90;;;19.80;91.14;97746.53;5217666;28;20609;-59
2021/06/28 05:03:03;;;;;;;6.07;5.60;;;19.10;99.90;;;19.84;91.28;97748.34;5225226;28;20218;-61
2021/06/28 05:05:36;;;;;;;6.30;5.80;;;19.10;99.90;;;19.98;91.27;97753.81;5223265;28;20200;-60
2021/06/28 05:08:10;;;;;;;6.38;5.88;;;19.30;99.90;;;20.09;90.13;97754.88;5223637;28;20628;-59
2021/06/28 05:10:43;;;;;;;5.60;5.20;;;19.40;99.90;;;20.62;88.56;97749.72;5217736;28;20571;-60
2021/06/28 05:13:16;;;;;;;5.40;5.00;;;19.90;99.90;;;21.31;87.44;97749.81;5223235;28;20205;-58
2021/06/28 05:15:51;;;;;;;5.63;5.13;;;20.60;99.90;;;22.24;82.94;97747.44;5221678;28;20197;-58
2021/06/28 05:18:24;;;;;;;4.45;4.15;;;21.50;99.90;;;22.99;77.73;97734.13;5226430;28;20185;-61
2021/06/28 05:20:57;;;;;;;4.75;4.45;;;22.10;99.90;;;23.38;74.62;97733.47;5223511;28;20569;-58
2021/06/28 05:23:30;;;;;;;4.53;4.22;;;22.30;99.90;;;23.23;73.95;97731.66;5227152;28;20193;-59
2021/06/28 05:26:04;;;;;;;5.20;4.70;;;22.10;99.90;;;23.07;74.76;97722.03;5227965;28;20200;-59
2021/06/28 05:28:37;;;;;;;4.45;4.15;;;21.90;99.90;;;22.79;74.88;97728.78;5222936;28;20232;-61
2021/06/28 05:31:11;;;;;;;5.00;4.70;;;21.70;99.90;;;22.63;76.31;97730.38;5223930;28;20197;-59
2021/06/28 05:33:44;;;;;;;6.32;4.60;;;21.60;99.90;;;22.68;76.67;97731.28;5222026;28;20653;-56
2021/06/28 05:36:17;;;;;;;5.28;4.88;;;21.50;99.90;;;22.86;77.70;97726.22;5224929;28;20578;-59
2021/06/28 05:38:50;;;;;;;5.50;5.00;;;21.80;99.90;;;23.22;75.29;97735.13;5228251;28;20280;-61
2021/06/28 05:41:23;;;;;;;6.38;5.07;;;22.10;99.90;;;23.34;73.60;97724.75;5229354;28;20200;-58
2021/06/28 05:43:56;;;;;;;5.20;4.80;;;22.20;99.90;;;23.37;72.97;97729.97;5223377;28;20661;-58
2021/06/28 05:46:31;;;;;;;4.65;4.28;;;22.20;99.90;;;23.23;73.47;97739.47;5226033;28;20225;-60
2021/06/28 05:49:04;;;;;;;5.35;4.80;;;22.10;99.90;;;23.22;74.35;97732.53;5229866;28;20233;-60
2021/06/28 05:51:37;;;;;;;5.32;4.82;;;22.00;99.90;;;23.20;74.13;97739.47;5229176;28;20197;-59
2021/06/28 05:54:10;;;;;;;4.93;4.53;;;22.00;99.90;;;23.31;74.48;97732.56;5229094;28;20204;-59
2021/06/28 05:56:43;;;;;;;5.00;4.60;;;22.10;99.90;;;23.83;73.45;97735.38;5228960;28;20224;-60
2021/06/28 05:59:16;;;;;;;4.70;4.40;;;22.50;99.90;;;24.46;70.06;97729.38;5229523;28;20570;-58
2021/06/28 06:01:50;;;;;;;5.22;4.70;;;23.20;99.90;;;25.25;66.59;97735.41;5227488;28;20670;-58
2021/06/28 06:04:24;;;;;;;5.38;4.60;;;23.70;99.90;;;25.87;64.91;97718.56;5224581;28;20284;-58
2021/06/28 06:06:58;;;;;;;4.68;4.28;;;24.20;99.90;;;26.58;61.66;97731.16;5228912;28;20220;-61
2021/06/28 06:09:31;;;;;;;4.32;4.00;;;24.70;99.90;;;26.93;60.33;97721.22;5228678;28;20204;-59
2021/06/28 06:12:06;;;;;;;4.28;3.97;;;24.90;99.90;;;27.23;59.34;97723.53;5224637;28;20193;-61
2021/06/28 06:14:39;;;;;;;3.95;3.67;;;25.20;99.90;;;27.57;56.89;97726.63;5228385;28;20291;-60
2021/06/28 06:17:13;;;;;;;4.07;3.80;;;25.30;99.90;;;26.99;58.80;97729.91;5228780;28;20219;-60
2021/06/28 06:19:46;;;;;;;4.70;4.30;;;25.10;99.90;;;26.56;59.84;97735.56;5228665;28;20196;-61
2021/06/28 06:22:19;;;;;;;4.90;4.50;;;24.70;99.90;;;26.26;61.22;97732.25;5228765;28;20197;-62
2021/06/28 06:24:52;;;;;;;4.82;4.35;;;24.40;99.90;;;25.92;62.54;97732.47;5228595;28;20207;-62
2021/06/28 06:27:31;;;;;;;4.63;4.32;;;24.10;99.90;;;25.61;63.04;97729.13;5227911;28;20217;-61
2021/06/28 06:30:07;;;;;;;5.32;4.82;;;23.90;99.90;;;25.30;64.55;97720.56;5220513;28;20697;-62
2021/06/28 06:32:56;;;;;;;5.00;4.50;;;23.70;99.90;;;25.19;64.86;97730.19;5228282;28;20201;-60
2021/06/28 06:35:30;;;;;;;5.03;4.53;;;23.70;99.90;;;25.31;64.15;97732.75;5227243;28;20201;-61
2021/06/28 06:38:04;;;;;;;4.65;4.25;;;23.80;99.90;;;25.40;64.94;97730.97;5224490;28;20212;-60
2021/06/28 06:40:38;;;;;;;4.60;4.20;;;23.80;99.90;;;25.56;63.60;97739.63;5226140;28;20634;-62
2021/06/28 06:43:11;;;;;;;4.80;4.40;;;23.80;99.90;;;25.93;62.57;97734.25;5228106;28;20192;-61
2021/06/28 06:45:45;;;;;;;4.80;4.40;;;24.20;99.90;;;26.17;62.03;97738.44;5223659;28;20193;-61
2021/06/28 06:48:19;;;;;;;4.18;3.85;;;24.50;99.90;;;26.49;60.93;97739.94;5223914;28;20212;-59
2021/06/28 06:50:52;;;;;;;4.85;4.20;;;24.90;99.90;;;26.69;59.47;97724.06;5228271;28;20200;-63
2021/06/28 06:53:25;;;;;;;5.07;4.68;;;25.00;99.90;;;27.23;58.09;97724.41;5228229;28;20193;-60
2021/06/28 06:56:05;;;;;;;5.10;4.70;;;25.50;99.90;;;27.96;56.41;97737.53;5227316;28;20291;-59
2021/06/28 06:58:38;;;;;;;4.90;4.55;;;26.20;99.90;;;28.07;55.37;97740.84;5228071;28;20250;-59
2021/06/28 07:01:14;;;;;;;5.00;4.65;;;26.30;99.90;;;28.37;52.32;97743.91;5227754;28;20737;-59
2021/06/28 07:03:48;;;;;;;4.32;4.03;;;26.50;99.90;;;28.96;54.26;97744.69;5227478;28;20246;-60
2021/06/28 07:06:22;;;;;;;4.50;4.20;;;27.20;99.90;;;29.79;51.16;97743.06;5227511;28;20219;-62
2021/06/28 07:08:55;;;;;;;4.40;4.10;;;27.90;99.90;;;30.59;48.90;97751.81;5224647;28;20189;-62
2021/06/28 07:11:28;;;;;;;4.20;3.90;;;28.40;99.90;;;30.83;47.59;97742.44;5226236;28;20485;-61
2021/06/28 07:14:01;;;;;;;3.72;3.45;;;28.80;99.90;;;30.88;47.89;97753.75;5222538;28;20212;-62
2021/06/28 07:16:34;;;;;;;4.15;3.80;;;28.70;99.90;;;31.31;46.43;97747.31;5225866;28;20682;-61
2021/06/28 07:19:10;;;;;;;3.25;3.05;;;28.70;99.90;;;31.05;46.13;97761.22;5222124;28;20566;-62
2021/06/28 07:21:43;;;;;;;3.47;3.28;;;28.80;99.90;;;31.23;45.84;97755.44;5227567;28;20279;-62
2021/06/28 07:24:16;;;;;;;3.58;3.30;;;29.00;99.50;;;31.10;45.08;97754.03;5221499;28;20193;-62
2021/06/28 07:26:49;;;;;;;3.70;3.38;;;28.70;99.10;;;31.25;45.20;97758.94;5227313;28;20220;-62
2021/06/28 07:29:22;;;;;;;3.85;3.38;;;28.90;99.20;;;30.91;46.65;97753.69;5226613;28;20688;-61
2021/06/28 07:31:55;;;;;;;4.13;3.83;;;28.80;99.40;;;30.86;46.13;97759.06;5227023;28;20193;-63
2021/06/28 07:34:30;;;;;;;4.07;3.65;;;28.90;99.00;;;31.05;45.56;97764.75;5226439;28;20228;-62
2021/06/28 07:37:04;;;;;;;3.65;3.45;;;28.90;98.60;;;30.85;46.08;97754.72;5223482;28;20216;-62
2021/06/28 07:39:37;;;;;;;3.47;2.88;;;28.90;98.90;;;30.77;46.61;97764.56;5225516;28;20211;-63
2021/06/28 07:42:11;;;;;;;3.55;3.25;;;28.80;99.00;;;31.11;45.67;97761.94;5224840;28;20649;-63
2021/06/28 07:44:44;;;;;;;3.28;2.97;;;29.30;98.20;;;31.45;44.81;97763.69;5224041;28;20291;-62
2021/06/28 07:47:17;;;;;;;4.28;3.72;;;29.60;97.60;;;32.11;43.97;97761.75;5226719;28;20209;-63
2021/06/28 07:49:51;;;;;;;3.65;3.38;;;29.90;97.60;;;32.60;42.34;97764.66;5226912;28;20563;-61
2021/06/28 07:52:24;;;;;;;3.33;3.03;;;30.00;97.10;;;33.03;41.87;97758.78;5221086;28;20660;-62
2021/06/28 07:54:59;;;;;;;3.58;3.28;;;30.40;96.60;;;33.22;39.87;97756.34;5226235;28;20203;-63
2021/06/28 07:57:32;;;;;;;3.10;2.88;;;30.70;95.20;;;33.52;40.18;97757.06;5226677;28;20670;-62
2021/06/28 08:00:08;;;;;;;2.97;2.78;;;30.80;95.60;;;33.85;38.15;97756.69;5219103;28;20194;-62
2021/06/28 08:02:42;;;;;;;3.53;3.22;;;31.00;93.80;;;34.07;38.83;97754.13;5221117;28;20592;-63
2021/06/28 08:05:18;;;;;;;3.50;3.20;;;31.30;94.40;;;34.67;37.73;97759.69;5226359;28;20583;-63
2021/06/28 08:07:51;;;;;;;3.33;3.13;;;31.90;93.50;;;34.76;36.28;97754.00;5226856;28;20220;-63
2021/06/28 08:10:24;;;;;;;3.20;2.90;;;31.80;92.40;;;34.77;36.68;97745.13;5226290;28;20216;-63
2021/06/28 08:12:58;;;;;;;3.20;3.00;;;31.90;92.90;;;35.12;35.71;97748.06;5221328;28;20658;-63
2021/06/28 08:15:31;;;;;;;3.35;3.05;;;32.00;91.80;;;35.43;35.84;97743.13;5223186;28;20200;-62
2021/06/28 08:18:04;;;;;;;3.42;3.13;;;32.00;92.40;;;35.72;34.16;97740.97;5224157;28;20654;-63
2021/06/28 08:20:41;;;;;;;3.10;2.80;;;32.50;90.80;;;35.69;34.70;97741.09;5225725;28;20196;-63
2021/06/28 08:23:16;;;;;;;3.33;3.13;;;32.40;91.40;;;35.09;35.38;97742.91;5224316;28;20227;-63
2021/06/28 08:25:49;;;;;;;3.45;3.08;;;32.10;91.30;;;34.91;36.54;97737.41;5219795;28;20280;-63
2021/06/28 08:28:22;;;;;;;3.28;3.03;;;32.10;92.00;;;34.61;35.70;97728.94;5206476;28;20233;-63
2021/06/28 08:30:55;;;;;;;3.13;2.92;;;32.20;90.30;;;34.49;36.28;97729.44;5218231;28;20216;-63
2021/06/28 08:33:28;;;;;;;2.88;2.78;;;32.00;90.50;;;34.49;36.66;97727.63;5225305;28;20208;-63
2021/06/28 08:36:03;;;;;;;3.47;3.25;;;32.10;90.80;;;34.40;36.53;97730.69;5222168;28;20210;-63
2021/06/28 08:38:36;;;;;;;3.40;3.10;;;32.10;90.00;;;34.38;36.24;97729.88;5224916;28;20207;-63
2021/06/28 08:41:15;;;;;;;3.30;3.10;;;32.30;89.90;;;34.01;35.63;97731.31;5217653;28;20223;-63
2021/06/28 08:43:48;;;;;;;3.30;3.10;;;32.40;88.70;;;33.95;36.99;97723.59;5222923;28;20214;-63
2021/06/28 08:46:21;;;;;;;3.22;3.03;;;32.40;89.20;;;34.03;36.77;97721.50;5224074;28;20223;-62
2021/06/28 08:48:55;;;;;;;3.60;3.40;;;32.50;89.40;;;34.03;35.97;97713.56;5222051;28;20657;-63
2021/06/28 08:51:30;;;;;;;3.38;3.17;;;32.30;88.40;;;33.90;35.85;97714.94;5229581;28;20226;-63
2021/06/28 08:54:12;;;;;;;3.70;3.50;;;32.30;87.80;;;33.94;36.33;97719.22;5224480;28;20193;-63
2021/06/28 08:56:47;;;;;;;3.65;3.45;;;32.20;87.80;;;33.90;36.82;97714.09;5211731;28;20217;-63
2021/06/28 08:59:25;;;;;;;3.40;3.20;;;32.40;88.60;;;33.67;37.66;97717.63;5223909;28;20217;-63
2021/06/28 09:01:58;;;;;;;3.35;3.15;;;32.30;88.70;;;33.88;37.32;97711.47;5227877;28;20195;-63
2021/06/28 09:04:31;;;;;;;3.47;3.28;;;32.60;88.70;;;34.03;36.56;97718.84;5222180;28;20282;-63
2021/06/28 09:07:19;;;;;;;3.60;3.40;;;32.70;86.30;;;34.07;36.46;97717.81;5222448;28;20226;-63
2021/06/28 09:09:52;;;;;;;3.65;3.45;;;32.70;87.20;;;33.92;36.44;97715.75;5224192;28;20203;-65
2021/06/28 09:12:25;;;;;;;3.60;3.35;;;32.60;87.90;;;33.76;36.94;97717.28;5220986;28;20198;-63
2021/06/28 09:15:01;;;;;;;3.72;3.53;;;32.30;87.90;;;33.78;37.55;97718.94;5220236;28;20613;-63
2021/06/28 09:17:36;;;;;;;3.50;3.30;;;32.40;88.60;;;33.78;36.15;97716.28;5219526;28;20216;-63
2021/06/28 09:20:18;;;;;;;3.60;3.40;;;32.40;86.10;;;33.71;36.39;97714.81;5223066;28;20671;-64
2021/06/28 09:22:53;;;;;;;4.05;3.75;;;32.40;86.20;;;33.75;36.68;97713.75;5221373;28;20197;-63
2021/06/28 09:25:32;;;;;;;4.35;4.05;;;32.50;86.70;;;33.92;37.64;97706.94;5212869;28;20211;-63
2021/06/28 09:28:06;;;;;;;3.85;3.55;;;32.70;87.50;;;33.98;35.49;97707.56;5224297;28;20700;-63
2021/06/28 09:30:46;;;;;;;3.92;3.67;;;32.70;84.00;;;33.60;37.14;97709.91;5209382;28;20213;-63
2021/06/28 09:33:22;;;;;;;3.75;3.55;;;32.50;86.20;;;33.53;36.65;97711.06;5219873;28;20278;-63
2021/06/28 09:35:55;;;;;;;3.72;3.53;;;32.50;86.00;;;33.60;37.33;97707.25;5216543;28;20206;-63
2021/06/28 09:38:37;;;;;;;3.53;3.22;;;32.60;86.30;;;33.60;36.88;97709.06;5220567;28;20228;-63
2021/06/28 09:41:34;;;;;;;3.80;3.60;;;32.70;84.40;;;33.46;36.75;97709.53;5218818;28;20193;-63
2021/06/28 09:44:09;;;;;;;4.22;3.83;;;32.50;85.00;;;33.36;37.97;97706.34;5204873;28;20266;-62
2021/06/28 09:46:42;;;;;;;4.00;3.65;;;32.30;85.80;;;33.39;38.01;97708.03;5221872;28;20219;-63
2021/06/28 09:49:17;;;;;;;4.32;4.00;;;32.30;87.40;;;33.52;36.76;97701.38;5224030;28;20284;-63
2021/06/28 09:51:50;;;;;;;4.03;3.83;;;32.50;85.10;;;33.68;35.99;97704.31;5223472;28;20228;-63
2021/06/28 09:54:24;;;;;;;3.75;3.53;;;32.70;83.70;;;33.62;36.24;97705.44;5217320;28;20198;-63
2021/06/28 09:56:57;;;;;;;3.80;3.50;;;32.50;84.10;;;33.56;37.43;97704.78;5222462;28;20307;-63
2021/06/28 09:59:32;;;;;;;3.95;3.70;;;32.50;85.20;;;33.66;37.03;97694.69;5222776;28;20250;-63
2021/06/28 10:02:19;;;;;;;3.85;3.55;;;32.50;84.50;;;33.65;36.21;97701.78;5224727;28;20189;-71
2021/06/28 10:04:56;;;;;;;3.95;3.65;;;32.50;85.10;;;33.63;35.58;97704.50;5222261;28;20626;-67
2021/06/28 10:07:36;;;;;;;4.25;3.95;;;32.50;83.40;;;33.49;36.52;97706.78;5226230;28;20228;-67
2021/06/28 10:10:19;;;;;;;3.38;3.17;;;32.50;84.60;;;33.52;37.13;97701.38;5223084;28;20197;-67
2021/06/28 10:13:08;;;;;;;3.92;3.72;;;32.50;85.60;;;33.53;37.03;97695.16;5224231;28;20204;-66
2021/06/28 10:15:43;;;;;;;3.95;3.47;;;32.50;84.70;;;33.64;37.61;97703.56;5225554;28;20193;-67
2021/06/28 10:18:18;;;;;;;3.65;3.45;;;32.50;85.40;;;33.58;37.30;97689.69;5222317;28;20594;-66
2021/06/28 10:20:51;;;;;;;4.00;3.70;;;32.50;85.60;;;33.61;37.25;97697.53;5224001;28;20236;-67
2021/06/28 10:23:24;;;;;;;3.92;3.72;;;32.60;85.00;;;33.06;37.12;97697.75;5223227;28;20579;-67
2021/06/28 10:25:59;;;;;;;4.05;3.75;;;32.00;85.30;;;32.98;36.45;97689.19;5225681;28;20665;-67
2021/06/28 10:28:34;;;;;;;3.97;3.67;;;32.00;83.20;;;32.84;37.70;97689.66;5224306;28;20283;-67
2021/06/28 10:31:09;;;;;;;4.18;3.88;;;31.90;83.90;;;32.86;38.42;97686.97;5227440;28;20633;-66
2021/06/28 10:33:44;;;;;;;3.97;3.67;;;31.90;87.40;;;32.96;38.53;97685.72;5223043;28;20605;-67
2021/06/28 10:36:21;;;;;;;4.03;3.63;;;31.90;86.00;;;33.04;36.98;97686.34;5225125;28;20227;-67
2021/06/28 10:38:57;;;;;;;3.65;3.33;;;31.90;83.40;;;32.96;37.29;97672.47;5222484;28;20679;-67
2021/06/28 10:41:41;;;;;;;3.78;3.53;;;31.90;84.40;;;33.03;37.05;97674.03;5227078;28;20459;-67
2021/06/28 10:44:17;;;;;;;4.30;4.00;;;31.90;84.10;;;33.01;37.82;97670.56;5220778;28;20334;-67
2021/06/28 10:46:53;;;;;;;4.25;3.95;;;31.90;86.40;;;33.14;38.32;97674.50;5226450;28;20213;-67
2021/06/28 10:49:45;;;;;;;3.70;3.47;;;31.70;86.40;;;33.07;37.86;97669.47;5220957;28;20205;-67